Terminal Aerodrome Forecast
Issued by NWS

Home | Current Version | Previous Version | Text Only | Print | Product List | Glossary On
Versions: 1 2 3 4 5 6 7 8 9 10 11 12 13
000
FTUS43 KJKL 231100
TAFSME
TAF
KSME 231139Z 2312/2412 15004KT P6SM BKN050 BKN100
     FM231600 15006KT P6SM VCSH OVC050
     FM232000 15009G15KT 5SM -SHRA BR OVC025
     FM240300 20012G20KT P6SM VCSH OVC050 WS015/20045KT=

USA.gov is the U.S. government's official web portal to all federal, state and local government web resources and services.